sensor_id;sensor_type;location;lat;lon;timestamp;P1;durP1;ratioP1;P2;durP2;ratioP2
34136;SDS011;20414;50.860;4.382;2022-12-01T00:00:44;4.22;;;3.30;;
34136;SDS011;20414;50.860;4.382;2022-12-01T00:03:10;4.45;;;3.40;;
34136;SDS011;20414;50.860;4.382;2022-12-01T00:05:36;3.65;;;3.10;;
34136;SDS011;20414;50.860;4.382;2022-12-01T00:08:02;4.18;;;3.25;;
34136;SDS011;20414;50.860;4.382;2022-12-01T00:10:29;4.22;;;3.40;;
34136;SDS011;20414;50.860;4.382;2022-12-01T00:12:57;4.13;;;3.35;;
34136;SDS011;20414;50.860;4.382;2022-12-01T00:15:25;4.25;;;3.25;;
34136;SDS011;20414;50.860;4.382;2022-12-01T00:17:52;3.90;;;3.30;;
34136;SDS011;20414;50.860;4.382;2022-12-01T00:20:18;4.10;;;3.10;;
34136;SDS011;20414;50.860;4.382;2022-12-01T00:22:44;3.65;;;3.13;;
34136;SDS011;20414;50.860;4.382;2022-12-01T00:25:11;3.40;;;3.10;;
34136;SDS011;20414;50.860;4.382;2022-12-01T00:27:38;4.45;;;3.40;;
34136;SDS011;20414;50.860;4.382;2022-12-01T00:30:04;3.90;;;3.40;;
34136;SDS011;20414;50.860;4.382;2022-12-01T00:32:32;5.07;;;3.80;;
34136;SDS011;20414;50.860;4.382;2022-12-01T00:34:58;3.63;;;3.05;;
34136;SDS011;20414;50.860;4.382;2022-12-01T00:37:23;3.88;;;3.10;;
34136;SDS011;20414;50.860;4.382;2022-12-01T00:39:49;4.18;;;3.38;;
34136;SDS011;20414;50.860;4.382;2022-12-01T00:42:15;3.90;;;3.35;;
34136;SDS011;20414;50.860;4.382;2022-12-01T00:44:40;3.92;;;3.15;;
34136;SDS011;20414;50.860;4.382;2022-12-01T00:47:06;3.95;;;3.30;;
34136;SDS011;20414;50.860;4.382;2022-12-01T00:49:32;4.53;;;3.40;;
34136;SDS011;20414;50.860;4.382;2022-12-01T00:51:57;3.53;;;3.00;;
34136;SDS011;20414;50.860;4.382;2022-12-01T00:54:23;3.80;;;3.10;;
34136;SDS011;20414;50.860;4.382;2022-12-01T00:56:48;3.60;;;2.70;;
34136;SDS011;20414;50.860;4.382;2022-12-01T00:59:14;3.72;;;2.90;;
34136;SDS011;20414;50.860;4.382;2022-12-01T01:01:40;3.63;;;2.83;;
34136;SDS011;20414;50.860;4.382;2022-12-01T01:04:06;3.80;;;2.97;;
34136;SDS011;20414;50.860;4.382;2022-12-01T01:06:32;3.80;;;3.13;;
34136;SDS011;20414;50.860;4.382;2022-12-01T01:08:57;3.88;;;3.05;;
34136;SDS011;20414;50.860;4.382;2022-12-01T01:11:23;4.15;;;3.22;;
34136;SDS011;20414;50.860;4.382;2022-12-01T01:13:49;3.55;;;3.10;;
34136;SDS011;20414;50.860;4.382;2022-12-01T01:16:16;3.92;;;3.22;;
34136;SDS011;20414;50.860;4.382;2022-12-01T01:18:47;4.17;;;3.30;;
34136;SDS011;20414;50.860;4.382;2022-12-01T01:21:13;4.90;;;3.28;;
34136;SDS011;20414;50.860;4.382;2022-12-01T01:23:41;3.80;;;3.10;;
34136;SDS011;20414;50.860;4.382;2022-12-01T01:26:14;5.10;;;3.78;;
34136;SDS011;20414;50.860;4.382;2022-12-01T01:28:45;4.28;;;3.45;;
34136;SDS011;20414;50.860;4.382;2022-12-01T01:31:13;3.83;;;3.13;;
34136;SDS011;20414;50.860;4.382;2022-12-01T01:33:40;4.55;;;3.55;;
34136;SDS011;20414;50.860;4.382;2022-12-01T01:36:06;4.38;;;3.60;;
34136;SDS011;20414;50.860;4.382;2022-12-01T01:38:32;5.00;;;3.88;;
34136;SDS011;20414;50.860;4.382;2022-12-01T01:40:59;4.68;;;3.50;;
34136;SDS011;20414;50.860;4.382;2022-12-01T01:46:12;5.35;;;4.10;;
34136;SDS011;20414;50.860;4.382;2022-12-01T01:48:44;5.13;;;4.00;;
34136;SDS011;20414;50.860;4.382;2022-12-01T01:51:13;4.18;;;3.60;;
34136;SDS011;20414;50.860;4.382;2022-12-01T01:53:41;4.68;;;3.63;;
34136;SDS011;20414;50.860;4.382;2022-12-01T01:56:10;4.50;;;3.60;;
34136;SDS011;20414;50.860;4.382;2022-12-01T01:58:36;3.97;;;3.38;;
34136;SDS011;20414;50.860;4.382;2022-12-01T02:01:02;4.05;;;3.55;;
34136;SDS011;20414;50.860;4.382;2022-12-01T02:03:29;4.53;;;3.53;;
34136;SDS011;20414;50.860;4.382;2022-12-01T02:05:55;3.75;;;3.25;;
34136;SDS011;20414;50.860;4.382;2022-12-01T02:08:21;4.70;;;3.90;;
34136;SDS011;20414;50.860;4.382;2022-12-01T02:14:16;3.92;;;3.42;;
34136;SDS011;20414;50.860;4.382;2022-12-01T02:17:11;5.07;;;3.88;;
34136;SDS011;20414;50.860;4.382;2022-12-01T02:22:21;4.22;;;3.10;;
34136;SDS011;20414;50.860;4.382;2022-12-01T02:27:53;5.05;;;3.70;;
34136;SDS011;20414;50.860;4.382;2022-12-01T02:35:47;5.20;;;4.10;;
34136;SDS011;20414;50.860;4.382;2022-12-01T02:41:13;5.07;;;3.92;;
34136;SDS011;20414;50.860;4.382;2022-12-01T02:46:36;4.85;;;3.75;;
34136;SDS011;20414;50.860;4.382;2022-12-01T02:49:13;5.00;;;4.30;;
34136;SDS011;20414;50.860;4.382;2022-12-01T02:51:41;5.53;;;4.68;;
34136;SDS011;20414;50.860;4.382;2022-12-01T02:54:09;5.18;;;4.25;;
34136;SDS011;20414;50.860;4.382;2022-12-01T02:56:37;4.95;;;4.10;;
34136;SDS011;20414;50.860;4.382;2022-12-01T02:59:12;4.97;;;3.95;;
34136;SDS011;20414;50.860;4.382;2022-12-01T03:04:32;5.75;;;4.50;;
34136;SDS011;20414;50.860;4.382;2022-12-01T03:07:37;5.85;;;4.22;;
34136;SDS011;20414;50.860;4.382;2022-12-01T03:23:18;6.07;;;4.85;;
34136;SDS011;20414;50.860;4.382;2022-12-01T03:25:47;5.45;;;4.40;;
34136;SDS011;20414;50.860;4.382;2022-12-01T03:28:16;6.20;;;4.88;;
34136;SDS011;20414;50.860;4.382;2022-12-01T03:33:20;6.45;;;4.82;;
34136;SDS011;20414;50.860;4.382;2022-12-01T03:36:51;4.97;;;4.05;;
34136;SDS011;20414;50.860;4.382;2022-12-01T03:38:47;6.32;;;4.63;;
34136;SDS011;20414;50.860;4.382;2022-12-01T03:41:20;5.60;;;4.32;;
34136;SDS011;20414;50.860;4.382;2022-12-01T03:43:51;4.68;;;3.92;;
34136;SDS011;20414;50.860;4.382;2022-12-01T03:46:28;6.80;;;5.53;;
34136;SDS011;20414;50.860;4.382;2022-12-01T03:49:12;7.07;;;5.03;;
34136;SDS011;20414;50.860;4.382;2022-12-01T03:51:40;7.43;;;5.28;;
34136;SDS011;20414;50.860;4.382;2022-12-01T03:57:05;5.38;;;3.95;;
34136;SDS011;20414;50.860;4.382;2022-12-01T03:59:34;5.05;;;4.35;;
34136;SDS011;20414;50.860;4.382;2022-12-01T04:02:04;5.97;;;4.75;;
34136;SDS011;20414;50.860;4.382;2022-12-01T04:04:31;5.05;;;4.18;;
34136;SDS011;20414;50.860;4.382;2022-12-01T04:06:57;5.93;;;4.85;;
34136;SDS011;20414;50.860;4.382;2022-12-01T04:09:23;6.78;;;5.05;;
34136;SDS011;20414;50.860;4.382;2022-12-01T04:11:48;7.78;;;5.90;;
34136;SDS011;20414;50.860;4.382;2022-12-01T04:14:32;6.32;;;4.75;;
34136;SDS011;20414;50.860;4.382;2022-12-01T04:16:58;6.50;;;4.70;;
34136;SDS011;20414;50.860;4.382;2022-12-01T04:19:24;6.95;;;5.22;;
34136;SDS011;20414;50.860;4.382;2022-12-01T04:21:49;6.97;;;5.70;;
34136;SDS011;20414;50.860;4.382;2022-12-01T04:24:15;8.68;;;6.00;;
34136;SDS011;20414;50.860;4.382;2022-12-01T04:26:40;5.35;;;4.18;;
34136;SDS011;20414;50.860;4.382;2022-12-01T04:29:08;6.68;;;4.97;;
34136;SDS011;20414;50.860;4.382;2022-12-01T04:31:34;6.53;;;4.70;;
34136;SDS011;20414;50.860;4.382;2022-12-01T04:34:01;6.03;;;4.20;;
34136;SDS011;20414;50.860;4.382;2022-12-01T04:36:31;6.30;;;4.82;;
34136;SDS011;20414;50.860;4.382;2022-12-01T04:38:59;5.82;;;4.22;;
34136;SDS011;20414;50.860;4.382;2022-12-01T04:41:25;7.53;;;5.30;;
34136;SDS011;20414;50.860;4.382;2022-12-01T04:43:51;6.22;;;4.55;;
34136;SDS011;20414;50.860;4.382;2022-12-01T04:46:18;6.38;;;4.47;;
34136;SDS011;20414;50.860;4.382;2022-12-01T04:48:44;6.32;;;4.82;;
34136;SDS011;20414;50.860;4.382;2022-12-01T04:51:10;6.45;;;5.00;;
34136;SDS011;20414;50.860;4.382;2022-12-01T04:53:35;7.22;;;5.47;;
34136;SDS011;20414;50.860;4.382;2022-12-01T04:56:01;7.65;;;5.35;;
34136;SDS011;20414;50.860;4.382;2022-12-01T04:58:28;7.63;;;5.53;;
34136;SDS011;20414;50.860;4.382;2022-12-01T05:01:02;6.20;;;4.80;;
34136;SDS011;20414;50.860;4.382;2022-12-01T05:03:30;7.70;;;5.32;;
34136;SDS011;20414;50.860;4.382;2022-12-01T05:05:59;6.22;;;4.90;;
34136;SDS011;20414;50.860;4.382;2022-12-01T05:08:29;6.60;;;5.28;;
34136;SDS011;20414;50.860;4.382;2022-12-01T05:10:55;6.00;;;4.80;;
34136;SDS011;20414;50.860;4.382;2022-12-01T05:13:21;6.85;;;5.03;;
34136;SDS011;20414;50.860;4.382;2022-12-01T05:15:46;6.43;;;4.80;;
34136;SDS011;20414;50.860;4.382;2022-12-01T05:18:12;6.07;;;4.60;;
34136;SDS011;20414;50.860;4.382;2022-12-01T05:20:38;5.93;;;4.30;;
34136;SDS011;20414;50.860;4.382;2022-12-01T05:23:22;6.25;;;4.60;;
34136;SDS011;20414;50.860;4.382;2022-12-01T05:25:52;5.75;;;4.40;;
34136;SDS011;20414;50.860;4.382;2022-12-01T05:28:18;5.50;;;4.30;;
34136;SDS011;20414;50.860;4.382;2022-12-01T05:30:45;5.50;;;4.15;;
34136;SDS011;20414;50.860;4.382;2022-12-01T05:33:11;5.53;;;3.90;;
34136;SDS011;20414;50.860;4.382;2022-12-01T05:35:36;5.78;;;4.35;;
34136;SDS011;20414;50.860;4.382;2022-12-01T05:38:02;5.18;;;4.15;;
34136;SDS011;20414;50.860;4.382;2022-12-01T05:40:28;6.70;;;5.20;;
34136;SDS011;20414;50.860;4.382;2022-12-01T05:42:55;5.20;;;4.07;;
34136;SDS011;20414;50.860;4.382;2022-12-01T05:45:21;7.43;;;5.40;;
34136;SDS011;20414;50.860;4.382;2022-12-01T05:47:47;8.05;;;5.03;;
34136;SDS011;20414;50.860;4.382;2022-12-01T05:50:13;7.70;;;5.15;;
34136;SDS011;20414;50.860;4.382;2022-12-01T05:52:38;6.03;;;4.25;;
34136;SDS011;20414;50.860;4.382;2022-12-01T05:55:04;5.68;;;4.35;;
34136;SDS011;20414;50.860;4.382;2022-12-01T05:57:31;8.95;;;5.75;;
34136;SDS011;20414;50.860;4.382;2022-12-01T05:59:57;5.63;;;4.32;;
34136;SDS011;20414;50.860;4.382;2022-12-01T06:02:23;7.88;;;5.22;;
34136;SDS011;20414;50.860;4.382;2022-12-01T06:04:52;7.75;;;5.28;;
34136;SDS011;20414;50.860;4.382;2022-12-01T06:07:18;5.53;;;4.28;;
34136;SDS011;20414;50.860;4.382;2022-12-01T06:09:44;5.32;;;3.85;;
34136;SDS011;20414;50.860;4.382;2022-12-01T06:12:10;7.47;;;5.43;;
34136;SDS011;20414;50.860;4.382;2022-12-01T06:14:36;7.55;;;5.18;;
34136;SDS011;20414;50.860;4.382;2022-12-01T06:17:02;7.55;;;5.07;;
34136;SDS011;20414;50.860;4.382;2022-12-01T06:19:28;5.88;;;4.13;;
34136;SDS011;20414;50.860;4.382;2022-12-01T06:21:55;4.93;;;4.07;;
34136;SDS011;20414;50.860;4.382;2022-12-01T06:24:21;6.03;;;4.25;;
34136;SDS011;20414;50.860;4.382;2022-12-01T06:26:47;5.45;;;4.35;;
34136;SDS011;20414;50.860;4.382;2022-12-01T06:29:12;5.30;;;4.20;;
34136;SDS011;20414;50.860;4.382;2022-12-01T06:31:38;5.32;;;3.85;;
34136;SDS011;20414;50.860;4.382;2022-12-01T06:34:04;5.63;;;4.45;;
34136;SDS011;20414;50.860;4.382;2022-12-01T06:36:29;5.63;;;4.18;;
34136;SDS011;20414;50.860;4.382;2022-12-01T06:38:55;5.88;;;4.38;;
34136;SDS011;20414;50.860;4.382;2022-12-01T06:41:21;6.20;;;4.05;;
34136;SDS011;20414;50.860;4.382;2022-12-01T06:43:46;6.80;;;4.47;;
34136;SDS011;20414;50.860;4.382;2022-12-01T06:46:12;5.07;;;3.90;;
34136;SDS011;20414;50.860;4.382;2022-12-01T06:48:38;5.18;;;3.92;;
34136;SDS011;20414;50.860;4.382;2022-12-01T06:51:03;5.85;;;3.83;;
34136;SDS011;20414;50.860;4.382;2022-12-01T06:53:29;5.78;;;4.38;;
34136;SDS011;20414;50.860;4.382;2022-12-01T06:55:58;5.07;;;3.92;;
34136;SDS011;20414;50.860;4.382;2022-12-01T07:00:50;6.72;;;4.40;;
34136;SDS011;20414;50.860;4.382;2022-12-01T07:03:16;5.88;;;4.30;;
34136;SDS011;20414;50.860;4.382;2022-12-01T07:05:41;5.32;;;3.88;;
34136;SDS011;20414;50.860;4.382;2022-12-01T07:08:07;6.10;;;4.28;;
34136;SDS011;20414;50.860;4.382;2022-12-01T07:10:33;5.18;;;3.90;;
34136;SDS011;20414;50.860;4.382;2022-12-01T07:12:58;4.93;;;4.00;;
34136;SDS011;20414;50.860;4.382;2022-12-01T07:15:24;5.93;;;3.88;;
34136;SDS011;20414;50.860;4.382;2022-12-01T07:17:49;5.80;;;4.15;;
34136;SDS011;20414;50.860;4.382;2022-12-01T07:20:15;4.75;;;3.67;;
34136;SDS011;20414;50.860;4.382;2022-12-01T07:22:41;5.38;;;4.22;;
34136;SDS011;20414;50.860;4.382;2022-12-01T07:25:10;5.68;;;4.00;;
34136;SDS011;20414;50.860;4.382;2022-12-01T07:27:35;7.15;;;4.25;;
34136;SDS011;20414;50.860;4.382;2022-12-01T07:30:01;4.72;;;3.70;;
34136;SDS011;20414;50.860;4.382;2022-12-01T07:32:27;4.82;;;3.88;;
34136;SDS011;20414;50.860;4.382;2022-12-01T07:34:52;5.47;;;3.90;;
34136;SDS011;20414;50.860;4.382;2022-12-01T07:37:19;5.57;;;3.97;;
34136;SDS011;20414;50.860;4.382;2022-12-01T07:39:45;5.45;;;4.05;;
34136;SDS011;20414;50.860;4.382;2022-12-01T07:42:10;5.55;;;4.00;;
34136;SDS011;20414;50.860;4.382;2022-12-01T07:44:36;6.93;;;4.30;;
34136;SDS011;20414;50.860;4.382;2022-12-01T07:47:02;4.90;;;4.00;;
34136;SDS011;20414;50.860;4.382;2022-12-01T07:49:27;5.75;;;3.90;;
34136;SDS011;20414;50.860;4.382;2022-12-01T07:51:53;5.70;;;3.95;;
34136;SDS011;20414;50.860;4.382;2022-12-01T07:54:18;6.20;;;4.28;;
34136;SDS011;20414;50.860;4.382;2022-12-01T07:56:45;6.22;;;4.18;;
34136;SDS011;20414;50.860;4.382;2022-12-01T07:59:10;6.80;;;4.50;;
34136;SDS011;20414;50.860;4.382;2022-12-01T08:01:36;5.53;;;4.30;;
34136;SDS011;20414;50.860;4.382;2022-12-01T08:04:03;5.47;;;4.05;;
34136;SDS011;20414;50.860;4.382;2022-12-01T08:06:29;5.03;;;3.90;;
34136;SDS011;20414;50.860;4.382;2022-12-01T08:08:54;4.97;;;4.05;;
34136;SDS011;20414;50.860;4.382;2022-12-01T08:11:23;6.03;;;4.40;;
34136;SDS011;20414;50.860;4.382;2022-12-01T08:13:50;5.57;;;4.25;;
34136;SDS011;20414;50.860;4.382;2022-12-01T08:16:18;6.03;;;4.13;;
34136;SDS011;20414;50.860;4.382;2022-12-01T08:18:45;5.25;;;3.78;;
34136;SDS011;20414;50.860;4.382;2022-12-01T08:21:13;5.15;;;3.90;;
34136;SDS011;20414;50.860;4.382;2022-12-01T08:23:40;4.90;;;4.07;;
34136;SDS011;20414;50.860;4.382;2022-12-01T08:26:08;5.40;;;3.95;;
34136;SDS011;20414;50.860;4.382;2022-12-01T08:28:37;5.05;;;3.78;;
34136;SDS011;20414;50.860;4.382;2022-12-01T08:31:22;5.40;;;4.10;;
34136;SDS011;20414;50.860;4.382;2022-12-01T08:33:48;4.97;;;3.78;;
34136;SDS011;20414;50.860;4.382;2022-12-01T08:36:15;5.80;;;4.10;;
34136;SDS011;20414;50.860;4.382;2022-12-01T08:38:46;5.68;;;4.20;;
34136;SDS011;20414;50.860;4.382;2022-12-01T08:41:15;5.10;;;3.83;;
34136;SDS011;20414;50.860;4.382;2022-12-01T08:43:40;5.03;;;3.55;;
34136;SDS011;20414;50.860;4.382;2022-12-01T08:46:09;7.20;;;3.97;;
34136;SDS011;20414;50.860;4.382;2022-12-01T08:48:36;5.65;;;3.80;;
34136;SDS011;20414;50.860;4.382;2022-12-01T08:53:29;6.00;;;3.90;;
34136;SDS011;20414;50.860;4.382;2022-12-01T08:55:57;6.90;;;4.57;;
34136;SDS011;20414;50.860;4.382;2022-12-01T08:58:27;5.93;;;4.55;;
34136;SDS011;20414;50.860;4.382;2022-12-01T09:00:59;5.13;;;4.10;;
34136;SDS011;20414;50.860;4.382;2022-12-01T09:03:29;5.13;;;3.83;;
34136;SDS011;20414;50.860;4.382;2022-12-01T09:06:00;4.85;;;3.53;;
34136;SDS011;20414;50.860;4.382;2022-12-01T09:08:29;5.07;;;4.05;;
34136;SDS011;20414;50.860;4.382;2022-12-01T09:10:56;6.13;;;3.70;;
34136;SDS011;20414;50.860;4.382;2022-12-01T09:13:24;5.50;;;3.97;;
34136;SDS011;20414;50.860;4.382;2022-12-01T09:15:55;5.13;;;3.90;;
34136;SDS011;20414;50.860;4.382;2022-12-01T09:18:26;4.60;;;3.70;;
34136;SDS011;20414;50.860;4.382;2022-12-01T09:20:52;5.35;;;4.15;;
34136;SDS011;20414;50.860;4.382;2022-12-01T09:23:18;5.93;;;4.13;;
34136;SDS011;20414;50.860;4.382;2022-12-01T09:25:44;5.25;;;3.90;;
34136;SDS011;20414;50.860;4.382;2022-12-01T09:28:10;6.28;;;3.78;;
34136;SDS011;20414;50.860;4.382;2022-12-01T09:30:35;4.88;;;3.95;;
34136;SDS011;20414;50.860;4.382;2022-12-01T09:33:02;5.32;;;4.05;;
34136;SDS011;20414;50.860;4.382;2022-12-01T09:35:29;5.15;;;3.80;;
34136;SDS011;20414;50.860;4.382;2022-12-01T09:37:55;4.85;;;3.67;;
34136;SDS011;20414;50.860;4.382;2022-12-01T09:40:28;4.85;;;4.00;;
34136;SDS011;20414;50.860;4.382;2022-12-01T09:43:09;3.95;;;3.53;;
34136;SDS011;20414;50.860;4.382;2022-12-01T09:45:58;5.05;;;3.80;;
34136;SDS011;20414;50.860;4.382;2022-12-01T09:48:33;4.55;;;3.60;;
34136;SDS011;20414;50.860;4.382;2022-12-01T09:51:11;4.93;;;4.03;;
34136;SDS011;20414;50.860;4.382;2022-12-01T09:53:38;5.00;;;3.92;;
34136;SDS011;20414;50.860;4.382;2022-12-01T09:56:06;4.82;;;3.58;;
34136;SDS011;20414;50.860;4.382;2022-12-01T09:58:54;4.40;;;3.50;;
34136;SDS011;20414;50.860;4.382;2022-12-01T10:01:41;4.13;;;3.50;;
34136;SDS011;20414;50.860;4.382;2022-12-01T10:04:10;5.05;;;3.90;;
34136;SDS011;20414;50.860;4.382;2022-12-01T10:06:51;5.20;;;3.90;;
34136;SDS011;20414;50.860;4.382;2022-12-01T10:09:52;5.03;;;3.22;;
34136;SDS011;20414;50.860;4.382;2022-12-01T10:12:23;4.38;;;3.65;;
34136;SDS011;20414;50.860;4.382;2022-12-01T10:17:56;4.35;;;3.50;;
34136;SDS011;20414;50.860;4.382;2022-12-01T10:20:30;3.83;;;3.42;;
34136;SDS011;20414;50.860;4.382;2022-12-01T10:23:14;4.10;;;3.50;;
34136;SDS011;20414;50.860;4.382;2022-12-01T10:29:02;4.10;;;3.50;;
34136;SDS011;20414;50.860;4.382;2022-12-01T10:31:34;4.40;;;3.40;;
34136;SDS011;20414;50.860;4.382;2022-12-01T10:34:14;4.05;;;3.47;;
34136;SDS011;20414;50.860;4.382;2022-12-01T10:36:42;4.55;;;3.60;;
34136;SDS011;20414;50.860;4.382;2022-12-01T10:39:12;4.38;;;3.70;;
34136;SDS011;20414;50.860;4.382;2022-12-01T10:41:42;4.15;;;3.25;;
34136;SDS011;20414;50.860;4.382;2022-12-01T10:44:08;5.05;;;3.58;;
34136;SDS011;20414;50.860;4.382;2022-12-01T10:46:44;6.05;;;3.88;;
34136;SDS011;20414;50.860;4.382;2022-12-01T10:49:16;4.10;;;3.50;;
34136;SDS011;20414;50.860;4.382;2022-12-01T10:51:53;5.25;;;3.95;;
34136;SDS011;20414;50.860;4.382;2022-12-01T10:54:22;3.95;;;3.42;;
34136;SDS011;20414;50.860;4.382;2022-12-01T10:56:55;4.15;;;3.40;;
34136;SDS011;20414;50.860;4.382;2022-12-01T11:01:51;5.43;;;3.80;;
34136;SDS011;20414;50.860;4.382;2022-12-01T11:07:06;4.07;;;3.40;;
34136;SDS011;20414;50.860;4.382;2022-12-01T11:09:40;4.90;;;3.95;;
34136;SDS011;20414;50.860;4.382;2022-12-01T11:12:11;4.38;;;3.63;;
34136;SDS011;20414;50.860;4.382;2022-12-01T11:14:43;4.78;;;3.70;;
34136;SDS011;20414;50.860;4.382;2022-12-01T11:17:16;5.38;;;3.78;;
34136;SDS011;20414;50.860;4.382;2022-12-01T11:19:51;4.33;;;3.43;;
34136;SDS011;20414;50.860;4.382;2022-12-01T11:22:21;4.32;;;3.60;;
34136;SDS011;20414;50.860;4.382;2022-12-01T11:27:21;4.15;;;3.50;;
34136;SDS011;20414;50.860;4.382;2022-12-01T11:30:00;3.72;;;3.00;;
34136;SDS011;20414;50.860;4.382;2022-12-01T11:32:34;5.07;;;3.70;;
34136;SDS011;20414;50.860;4.382;2022-12-01T11:37:38;3.67;;;3.20;;
34136;SDS011;20414;50.860;4.382;2022-12-01T11:47:58;5.68;;;3.53;;
34136;SDS011;20414;50.860;4.382;2022-12-01T11:50:27;4.43;;;3.45;;
34136;SDS011;20414;50.860;4.382;2022-12-01T11:52:54;4.40;;;3.38;;
34136;SDS011;20414;50.860;4.382;2022-12-01T11:55:21;4.65;;;3.67;;
34136;SDS011;20414;50.860;4.382;2022-12-01T11:57:49;3.60;;;3.03;;
34136;SDS011;20414;50.860;4.382;2022-12-01T12:00:24;3.85;;;3.28;;
34136;SDS011;20414;50.860;4.382;2022-12-01T12:11:11;4.93;;;3.40;;
34136;SDS011;20414;50.860;4.382;2022-12-01T12:24:21;4.00;;;3.40;;
34136;SDS011;20414;50.860;4.382;2022-12-01T12:27:19;4.22;;;3.60;;
34136;SDS011;20414;50.860;4.382;2022-12-01T12:46:06;3.70;;;3.05;;
34136;SDS011;20414;50.860;4.382;2022-12-01T12:53:53;3.80;;;3.17;;
34136;SDS011;20414;50.860;4.382;2022-12-01T12:56:22;4.30;;;3.25;;
34136;SDS011;20414;50.860;4.382;2022-12-01T13:04:43;3.80;;;3.13;;
34136;SDS011;20414;50.860;4.382;2022-12-01T13:07:36;3.85;;;2.88;;
34136;SDS011;20414;50.860;4.382;2022-12-01T13:10:09;3.88;;;3.03;;
34136;SDS011;20414;50.860;4.382;2022-12-01T13:12:39;3.45;;;2.72;;
34136;SDS011;20414;50.860;4.382;2022-12-01T13:15:17;3.47;;;3.00;;
34136;SDS011;20414;50.860;4.382;2022-12-01T13:17:48;3.50;;;3.00;;
34136;SDS011;20414;50.860;4.382;2022-12-01T13:20:18;4.30;;;3.50;;
34136;SDS011;20414;50.860;4.382;2022-12-01T13:22:49;3.55;;;3.22;;
34136;SDS011;20414;50.860;4.382;2022-12-01T13:25:21;3.70;;;3.10;;
34136;SDS011;20414;50.860;4.382;2022-12-01T13:27:59;4.80;;;3.72;;
34136;SDS011;20414;50.860;4.382;2022-12-01T13:30:27;3.53;;;2.97;;
34136;SDS011;20414;50.860;4.382;2022-12-01T13:33:00;3.22;;;2.80;;
34136;SDS011;20414;50.860;4.382;2022-12-01T13:35:34;4.03;;;3.10;;
34136;SDS011;20414;50.860;4.382;2022-12-01T13:46:25;3.33;;;3.00;;
34136;SDS011;20414;50.860;4.382;2022-12-01T13:52:42;3.40;;;2.78;;
34136;SDS011;20414;50.860;4.382;2022-12-01T13:57:43;3.78;;;3.08;;
34136;SDS011;20414;50.860;4.382;2022-12-01T14:00:22;3.25;;;2.83;;
34136;SDS011;20414;50.860;4.382;2022-12-01T14:08:26;4.43;;;3.20;;
34136;SDS011;20414;50.860;4.382;2022-12-01T14:14:09;4.32;;;3.58;;
34136;SDS011;20414;50.860;4.382;2022-12-01T14:16:54;4.22;;;3.08;;
34136;SDS011;20414;50.860;4.382;2022-12-01T14:19:36;3.13;;;2.70;;
34136;SDS011;20414;50.860;4.382;2022-12-01T14:24:53;3.92;;;2.85;;
34136;SDS011;20414;50.860;4.382;2022-12-01T14:27:36;3.22;;;2.83;;
34136;SDS011;20414;50.860;4.382;2022-12-01T14:42:34;3.50;;;2.80;;
34136;SDS011;20414;50.860;4.382;2022-12-01T14:45:22;3.22;;;2.70;;
34136;SDS011;20414;50.860;4.382;2022-12-01T14:47:55;3.45;;;2.78;;
34136;SDS011;20414;50.860;4.382;2022-12-01T14:50:42;3.85;;;3.22;;
34136;SDS011;20414;50.860;4.382;2022-12-01T14:53:18;4.03;;;2.90;;
34136;SDS011;20414;50.860;4.382;2022-12-01T14:56:11;4.20;;;3.20;;
34136;SDS011;20414;50.860;4.382;2022-12-01T14:58:49;3.33;;;2.88;;
34136;SDS011;20414;50.860;4.382;2022-12-01T15:01:17;3.20;;;2.80;;
34136;SDS011;20414;50.860;4.382;2022-12-01T15:03:47;3.30;;;2.72;;
34136;SDS011;20414;50.860;4.382;2022-12-01T15:06:22;3.05;;;2.60;;
34136;SDS011;20414;50.860;4.382;2022-12-01T15:09:11;3.00;;;2.53;;
34136;SDS011;20414;50.860;4.382;2022-12-01T15:11:48;3.78;;;2.53;;
34136;SDS011;20414;50.860;4.382;2022-12-01T15:16:54;3.10;;;2.80;;
34136;SDS011;20414;50.860;4.382;2022-12-01T15:22:20;2.92;;;2.63;;
34136;SDS011;20414;50.860;4.382;2022-12-01T15:24:52;3.50;;;2.88;;
34136;SDS011;20414;50.860;4.382;2022-12-01T15:27:25;3.70;;;2.88;;
34136;SDS011;20414;50.860;4.382;2022-12-01T15:29:52;3.97;;;2.95;;
34136;SDS011;20414;50.860;4.382;2022-12-01T15:32:20;3.80;;;2.90;;
34136;SDS011;20414;50.860;4.382;2022-12-01T15:34:49;3.63;;;2.92;;
34136;SDS011;20414;50.860;4.382;2022-12-01T15:37:17;3.13;;;2.72;;
34136;SDS011;20414;50.860;4.382;2022-12-01T15:39:49;3.35;;;2.83;;
34136;SDS011;20414;50.860;4.382;2022-12-01T15:42:23;4.05;;;2.75;;
34136;SDS011;20414;50.860;4.382;2022-12-01T15:44:59;4.13;;;2.78;;
34136;SDS011;20414;50.860;4.382;2022-12-01T15:47:34;3.45;;;2.83;;
34136;SDS011;20414;50.860;4.382;2022-12-01T15:50:25;3.15;;;2.85;;
34136;SDS011;20414;50.860;4.382;2022-12-01T15:53:21;3.60;;;3.00;;
34136;SDS011;20414;50.860;4.382;2022-12-01T15:55:50;4.15;;;3.17;;
34136;SDS011;20414;50.860;4.382;2022-12-01T15:58:23;3.80;;;3.20;;
34136;SDS011;20414;50.860;4.382;2022-12-01T16:01:02;3.28;;;2.97;;
34136;SDS011;20414;50.860;4.382;2022-12-01T16:03:48;3.20;;;2.65;;
34136;SDS011;20414;50.860;4.382;2022-12-01T16:06:22;4.68;;;3.03;;
34136;SDS011;20414;50.860;4.382;2022-12-01T16:08:55;3.35;;;2.80;;
34136;SDS011;20414;50.860;4.382;2022-12-01T16:11:23;3.40;;;2.63;;
34136;SDS011;20414;50.860;4.382;2022-12-01T16:13:57;3.25;;;2.75;;
34136;SDS011;20414;50.860;4.382;2022-12-01T16:16:48;3.30;;;3.00;;
34136;SDS011;20414;50.860;4.382;2022-12-01T16:21:45;3.70;;;2.78;;
34136;SDS011;20414;50.860;4.382;2022-12-01T16:26:47;3.72;;;2.88;;
34136;SDS011;20414;50.860;4.382;2022-12-01T16:29:19;3.00;;;2.70;;
34136;SDS011;20414;50.860;4.382;2022-12-01T16:31:49;3.70;;;3.10;;
34136;SDS011;20414;50.860;4.382;2022-12-01T16:34:17;3.30;;;2.80;;
34136;SDS011;20414;50.860;4.382;2022-12-01T16:36:48;3.28;;;2.95;;
34136;SDS011;20414;50.860;4.382;2022-12-01T16:39:13;3.45;;;2.97;;
34136;SDS011;20414;50.860;4.382;2022-12-01T16:41:40;3.55;;;2.90;;
34136;SDS011;20414;50.860;4.382;2022-12-01T16:44:15;3.47;;;2.78;;
34136;SDS011;20414;50.860;4.382;2022-12-01T16:46:41;4.13;;;2.83;;
34136;SDS011;20414;50.860;4.382;2022-12-01T16:49:07;3.95;;;2.85;;
34136;SDS011;20414;50.860;4.382;2022-12-01T16:51:33;3.30;;;2.90;;
34136;SDS011;20414;50.860;4.382;2022-12-01T16:54:00;3.53;;;2.80;;
34136;SDS011;20414;50.860;4.382;2022-12-01T16:56:26;3.50;;;2.85;;
34136;SDS011;20414;50.860;4.382;2022-12-01T16:58:51;4.43;;;3.55;;
34136;SDS011;20414;50.860;4.382;2022-12-01T17:01:17;3.50;;;3.05;;
34136;SDS011;20414;50.860;4.382;2022-12-01T17:03:42;3.95;;;3.42;;
34136;SDS011;20414;50.860;4.382;2022-12-01T17:06:09;4.03;;;3.08;;
34136;SDS011;20414;50.860;4.382;2022-12-01T17:08:39;4.13;;;3.13;;
34136;SDS011;20414;50.860;4.382;2022-12-01T17:11:04;3.97;;;3.03;;
34136;SDS011;20414;50.860;4.382;2022-12-01T17:13:31;3.30;;;2.95;;
34136;SDS011;20414;50.860;4.382;2022-12-01T17:15:57;3.53;;;2.90;;
34136;SDS011;20414;50.860;4.382;2022-12-01T17:18:23;4.78;;;3.33;;
34136;SDS011;20414;50.860;4.382;2022-12-01T17:20:55;3.58;;;2.80;;
34136;SDS011;20414;50.860;4.382;2022-12-01T17:23:25;5.00;;;3.45;;
34136;SDS011;20414;50.860;4.382;2022-12-01T17:25:50;3.70;;;3.03;;
34136;SDS011;20414;50.860;4.382;2022-12-01T17:28:16;3.28;;;2.90;;
34136;SDS011;20414;50.860;4.382;2022-12-01T17:30:42;4.00;;;3.40;;
34136;SDS011;20414;50.860;4.382;2022-12-01T17:33:08;4.32;;;3.17;;
34136;SDS011;20414;50.860;4.382;2022-12-01T17:35:34;3.55;;;2.70;;
34136;SDS011;20414;50.860;4.382;2022-12-01T17:38:01;4.35;;;3.35;;
34136;SDS011;20414;50.860;4.382;2022-12-01T17:40:27;3.92;;;3.05;;
34136;SDS011;20414;50.860;4.382;2022-12-01T17:42:52;3.70;;;3.00;;
34136;SDS011;20414;50.860;4.382;2022-12-01T17:45:18;5.55;;;4.05;;
34136;SDS011;20414;50.860;4.382;2022-12-01T17:47:44;3.85;;;2.78;;
34136;SDS011;20414;50.860;4.382;2022-12-01T17:50:09;3.60;;;3.08;;
34136;SDS011;20414;50.860;4.382;2022-12-01T17:52:35;3.58;;;2.83;;